East Bridgewater, Massachusetts
Current Conditions -  °F | °C
As of 2:52 PM on Friday 24 Oct 2014 (Local Time) from KTAN Reporting Station
Overcast Overcast  
Wind Chill: 54°   Ceiling: 2100
Heat Index: 54°   Visibility: 10mi
Dew Point: 46°   Wind: 7mph
Humidity: 75%   Direction: 320°NW
Pressure: 29.68"   Gusts: 17mph
Location:  42.03°N, 70.96°W
Report Text: KTAN 241852Z AUTO 32006G15KT 10SM OVC021 12/08 A2968 RMK AO2 SLP052 T01220078
Loading
Personal Weather Stations






























Interactive Weather Map
Tropical Storm Tracking
New forecast layout! Learn more

10-Day Weather Forecast

Advertisements
Track Severe Weather on mobile